PQM weather

Palenque International Airport
Chiapas, Mexico

Public forecast

Using degrees Celsius for public forecast. Weather courtesy of forecast.io.

Current aviation weather report (METAR) for Palenque International Airport

Report is more than 6 hours old.

Retrieved 2020/05/30 13:49 UTC (1 day ago):

MMPQ 301349Z 00000KT 4SM BKN030 24/23 A2980 RMK 8/500 HZY

Aviation forecast (TAF) for Palenque International Airport

Forecast is more than 6 hours old.

Retrieved 2020/05/31 06:44 UTC (7 hours ago):

TAF MMPQ 310444Z 3106/0106 00000KT 4SM HZ BKN030 TEMPO 3106/3109 3SM RA BKN020CB FM311200 12010KT P6SM -RA BKN010 OVC040 TEMPO 3114/3118 5SM RA BKN010CB FM312200 13015KT P6SM -RA BKN010CB OVC040